createdAt,value
2019-04-21T00:01:54.565Z,43.57
2019-04-21T00:07:19.344Z,43.57
2019-04-21T00:12:22.111Z,42.67
2019-04-21T00:17:15.631Z,42.50
2019-04-21T00:22:31.555Z,42.77
2019-04-21T00:27:39.649Z,43.17
2019-04-21T00:32:40.508Z,42.25
2019-04-21T00:37:53.433Z,42.23
2019-04-21T00:42:56.975Z,43.05
2019-04-21T00:48:03.922Z,41.13
2019-04-21T00:53:29.679Z,40.83
2019-04-21T00:58:34.235Z,40.47
2019-04-21T01:03:43.518Z,40.27
2019-04-21T01:08:41.362Z,39.73
2019-04-21T01:13:54.679Z,40.50
2019-04-21T01:18:51.793Z,39.50
2019-04-21T01:23:36.274Z,40.17
2019-04-21T01:28:55.951Z,39.47
2019-04-21T01:34:08.777Z,39.47
2019-04-21T01:39:13.197Z,39.80
2019-04-21T01:44:19.814Z,39.67
2019-04-21T01:49:14.413Z,39.47
2019-04-21T01:54:53.544Z,39.35
2019-04-21T01:59:42.562Z,38.77
2019-04-21T02:05:07.062Z,38.88
2019-04-21T02:10:05.218Z,38.73
2019-04-21T02:15:11.286Z,39.33
2019-04-21T02:20:02.596Z,40.03
2019-04-21T02:25:22.775Z,38.70
2019-04-21T02:30:36.139Z,39.00
2019-04-21T02:40:47.791Z,38.88
2019-04-21T02:45:47.096Z,38.60
2019-04-21T02:51:17.390Z,38.13
2019-04-21T02:56:00.558Z,39.20
2019-04-21T03:01:12.464Z,38.40
2019-04-21T03:11:14.632Z,37.98
2019-04-21T03:16:26.487Z,39.00
2019-04-21T03:21:29.018Z,39.83
2019-04-21T03:26:55.849Z,38.47
2019-04-21T03:32:18.233Z,37.58
2019-04-21T03:42:00.210Z,41.90
2019-04-21T03:46:56.103Z,37.40
2019-04-21T03:52:13.478Z,38.07
2019-04-21T04:02:23.057Z,39.17
2019-04-21T04:07:33.671Z,37.83
2019-04-21T04:12:26.284Z,38.37
2019-04-21T04:17:32.846Z,38.43
2019-04-21T04:28:02.132Z,38.80
2019-04-21T04:32:46.654Z,39.33
2019-04-21T04:37:57.287Z,40.43
2019-04-21T04:53:22.400Z,41.95
2019-04-21T04:58:18.773Z,42.70
2019-04-21T05:03:39.866Z,43.13
2019-04-21T05:08:43.377Z,43.13
2019-04-21T05:13:34.546Z,49.97
2019-04-21T05:18:46.927Z,49.87
2019-04-21T05:23:40.029Z,50.53
2019-04-21T05:28:39.622Z,51.57
2019-04-21T05:34:01.731Z,51.37
2019-04-21T05:39:10.667Z,50.67
2019-04-21T05:44:19.345Z,49.35
2019-04-21T05:49:25.298Z,49.88
2019-04-21T05:59:40.071Z,51.30
2019-04-21T06:05:10.482Z,50.90
2019-04-21T06:09:52.363Z,51.02
2019-04-21T06:14:59.885Z,51.53
2019-04-21T06:20:02.926Z,52.27
2019-04-21T06:30:03.304Z,50.48
2019-04-21T06:35:52.999Z,50.67
2019-04-21T06:40:43.859Z,51.28
2019-04-21T06:45:47.048Z,50.78
2019-04-21T06:50:52.515Z,50.17
2019-04-21T06:55:57.496Z,49.80
2019-04-21T07:01:03.720Z,50.33
2019-04-21T07:06:10.478Z,49.65
2019-04-21T07:11:08.698Z,50.03
2019-04-21T07:16:23.610Z,49.45
2019-04-21T07:21:19.801Z,49.58
2019-04-21T07:26:29.620Z,48.85
2019-04-21T07:31:40.232Z,48.55
2019-04-21T07:36:47.632Z,49.13
2019-04-21T07:41:38.846Z,49.08
2019-04-21T07:46:43.140Z,47.40
2019-04-21T07:51:59.138Z,47.85
2019-04-21T08:02:03.419Z,46.98
2019-04-21T08:07:15.190Z,47.98
2019-04-21T08:12:08.091Z,47.62
2019-04-21T08:17:19.036Z,47.35
2019-04-21T08:22:25.697Z,47.40
2019-04-21T08:27:37.129Z,47.33
2019-04-21T08:32:44.725Z,47.25
2019-04-21T08:37:43.258Z,47.40
2019-04-21T08:42:44.742Z,47.67
2019-04-21T08:47:52.058Z,47.80
2019-04-21T09:03:14.617Z,47.73
2019-04-21T09:08:28.068Z,48.40
2019-04-21T09:13:24.739Z,48.20
2019-04-21T09:18:28.477Z,48.10
2019-04-21T09:23:38.256Z,47.83
2019-04-21T09:28:39.416Z,47.93
2019-04-21T09:33:37.667Z,47.88
2019-04-21T09:38:41.873Z,48.35
2019-04-21T09:43:47.461Z,48.15
2019-04-21T09:48:55.676Z,48.08
2019-04-21T09:54:01.194Z,48.13
2019-04-21T09:59:10.071Z,49.13
2019-04-21T10:04:05.697Z,49.10
2019-04-21T10:09:14.241Z,48.58
2019-04-21T10:14:15.828Z,49.42
2019-04-21T10:19:19.410Z,49.35
2019-04-21T10:24:24.395Z,49.03
2019-04-21T10:29:31.275Z,49.67
2019-04-21T10:34:34.757Z,49.53
2019-04-21T10:39:39.657Z,49.48
2019-04-21T10:44:45.033Z,49.83
2019-04-21T10:49:48.891Z,49.67
2019-04-21T10:55:11.255Z,49.73
2019-04-21T10:59:59.880Z,49.85
2019-04-21T11:05:04.729Z,50.20
2019-04-21T11:10:09.956Z,50.50
2019-04-21T11:15:14.788Z,50.35
2019-04-21T11:20:19.607Z,50.07
2019-04-21T11:25:24.278Z,49.18
2019-04-21T11:30:29.675Z,49.10
2019-04-21T11:35:35.224Z,49.67
2019-04-21T11:40:39.970Z,49.10
2019-04-21T11:45:44.372Z,49.55
2019-04-21T11:50:49.064Z,49.20
2019-04-21T11:55:53.880Z,48.87
2019-04-21T12:01:00.278Z,49.40
2019-04-21T12:06:04.062Z,49.33
2019-04-21T12:11:07.849Z,48.77
2019-04-21T12:16:12.881Z,49.05
2019-04-21T12:21:16.691Z,49.63
2019-04-21T12:26:20.571Z,49.23
2019-04-21T12:31:43.987Z,49.03
2019-04-21T12:36:48.715Z,49.38
2019-04-21T12:41:52.445Z,49.63
2019-04-21T12:46:58.105Z,48.48
2019-04-21T12:52:01.946Z,48.57
2019-04-21T12:57:05.730Z,48.60
2019-04-21T13:02:09.669Z,48.87
2019-04-21T13:07:13.464Z,48.85
2019-04-21T13:12:17.348Z,48.35
2019-04-21T13:17:21.440Z,48.38
2019-04-21T13:22:25.958Z,48.17
2019-04-21T13:27:30.810Z,48.40
2019-04-21T13:32:35.274Z,48.52
2019-04-21T13:37:39.626Z,47.80
2019-04-21T13:42:51.269Z,48.02
2019-04-21T13:47:50.455Z,48.33
2019-04-21T13:52:54.470Z,48.02
2019-04-21T13:57:58.820Z,48.50
2019-04-21T14:03:02.937Z,47.67
2019-04-21T14:08:07.370Z,48.63
2019-04-21T14:13:12.168Z,47.62
2019-04-21T14:18:15.789Z,48.05
2019-04-21T14:23:28.508Z,47.95
2019-04-21T14:28:26.001Z,47.90
2019-04-21T14:33:29.922Z,47.73
2019-04-21T14:38:34.459Z,47.60
2019-04-21T14:43:38.470Z,47.70
2019-04-21T14:48:59.327Z,48.05
2019-04-21T14:54:08.037Z,46.95
2019-04-21T14:59:12.947Z,47.55
2019-04-21T15:04:17.713Z,50.45
2019-04-21T15:09:22.981Z,47.35
2019-04-21T15:14:26.828Z,55.80
2019-04-21T15:19:30.882Z,47.70
2019-04-21T15:24:38.267Z,48.70
2019-04-21T15:29:47.269Z,47.15
2019-04-21T15:34:52.034Z,46.75
2019-04-21T15:39:56.436Z,46.25
2019-04-21T15:45:00.923Z,46.35
2019-04-21T15:50:11.059Z,47.53
2019-04-21T15:55:19.011Z,46.60
2019-04-21T16:00:28.677Z,45.70
2019-04-21T16:05:32.942Z,46.15
2019-04-21T16:15:32.583Z,46.28
2019-04-21T16:20:37.554Z,45.78
2019-04-21T16:25:41.303Z,45.90
2019-04-21T16:30:46.451Z,45.53
2019-04-21T16:35:51.614Z,45.58
2019-04-21T16:40:59.724Z,46.20
2019-04-21T16:46:01.293Z,45.95
2019-04-21T16:51:05.731Z,45.53
2019-04-21T16:56:15.188Z,45.48
2019-04-21T17:01:22.008Z,45.17
2019-04-21T17:11:32.492Z,45.52
2019-04-21T17:16:57.966Z,46.58
2019-04-21T17:21:39.657Z,46.20
2019-04-21T17:26:44.678Z,45.52
2019-04-21T17:31:49.842Z,45.75
2019-04-21T17:36:54.963Z,45.83
2019-04-21T17:42:11.832Z,45.00
2019-04-21T17:47:11.738Z,45.95
2019-04-21T17:52:20.335Z,48.17
2019-04-21T17:57:45.514Z,46.63
2019-04-21T18:02:50.190Z,46.70
2019-04-21T18:07:50.203Z,47.13
2019-04-21T18:12:49.125Z,46.95
2019-04-21T18:17:46.555Z,46.37
2019-04-21T18:22:59.073Z,44.93
2019-04-21T18:28:04.937Z,44.40
2019-04-21T18:33:14.173Z,43.73
2019-04-21T18:38:25.515Z,47.40
2019-04-21T18:43:56.218Z,46.77
2019-04-21T18:48:41.140Z,47.58
2019-04-21T18:54:01.667Z,58.60
2019-04-21T18:58:48.897Z,69.57
2019-04-21T19:03:55.631Z,75.30
2019-04-21T19:09:14.977Z,56.80
2019-04-21T19:14:52.279Z,46.30
2019-04-21T19:24:54.909Z,47.10
2019-04-21T19:30:18.932Z,47.27
2019-04-21T19:34:45.479Z,48.13
2019-04-21T19:40:00.518Z,48.10
2019-04-21T19:45:10.798Z,48.35
2019-04-21T19:50:19.776Z,49.73
2019-04-21T19:55:04.593Z,50.30
2019-04-21T20:00:10.077Z,49.77
2019-04-21T20:05:24.362Z,47.37
2019-04-21T20:10:39.461Z,48.92
2019-04-21T20:15:44.742Z,48.50
2019-04-21T20:20:33.016Z,48.47
2019-04-21T20:25:45.949Z,46.20
2019-04-21T20:31:03.602Z,45.05
2019-04-21T20:36:11.885Z,44.83
2019-04-21T20:41:03.473Z,47.13
2019-04-21T20:46:12.344Z,46.73
2019-04-21T20:51:23.550Z,49.57
2019-04-21T20:56:19.129Z,46.17
2019-04-21T21:01:45.830Z,46.83
2019-04-21T21:06:36.181Z,44.40
2019-04-21T21:11:46.480Z,54.90
2019-04-21T21:16:50.803Z,50.00
2019-04-21T21:21:49.230Z,53.90
2019-04-21T21:27:04.640Z,49.20
2019-04-21T21:32:11.182Z,44.77
2019-04-21T21:37:21.705Z,44.10
2019-04-21T21:42:01.959Z,41.55
2019-04-21T21:47:17.528Z,41.93
2019-04-21T21:52:16.621Z,44.47
2019-04-21T21:57:14.619Z,43.90
2019-04-21T22:02:31.337Z,45.33
2019-04-21T22:07:28.067Z,47.27
2019-04-21T22:12:40.419Z,46.27
2019-04-21T22:17:48.339Z,46.73
2019-04-21T22:22:53.420Z,46.37
2019-04-21T22:27:46.197Z,45.67
2019-04-21T22:32:59.463Z,46.83
2019-04-21T22:38:13.990Z,46.77
2019-04-21T22:43:11.394Z,45.30
2019-04-21T22:48:13.629Z,44.23
2019-04-21T22:53:13.754Z,43.57
2019-04-21T22:58:23.627Z,43.60
2019-04-21T23:03:24.854Z,42.73
2019-04-21T23:08:33.171Z,43.60
2019-04-21T23:13:34.366Z,43.73
2019-04-21T23:18:53.069Z,43.20
2019-04-21T23:24:01.787Z,44.10
2019-04-21T23:29:08.968Z,44.87
2019-04-21T23:33:54.678Z,44.70
2019-04-21T23:38:58.584Z,44.53
2019-04-21T23:44:06.291Z,40.67
2019-04-21T23:49:21.659Z,41.73
2019-04-21T23:54:13.332Z,42.97
2019-04-21T23:59:18.053Z,42.47
